createdAt,value
2018-06-14T00:01:29.243Z,12.20
2018-06-14T00:03:56.831Z,12.20
2018-06-14T00:06:24.404Z,12.20
2018-06-14T00:08:51.934Z,12.20
2018-06-14T00:11:19.504Z,12.20
2018-06-14T00:13:47.054Z,12.20
2018-06-14T00:16:14.616Z,12.20
2018-06-14T00:18:42.503Z,12.20
2018-06-14T00:21:10.042Z,12.20
2018-06-14T00:23:38.054Z,12.20
2018-06-14T00:26:05.586Z,12.20
2018-06-14T00:28:33.156Z,12.20
2018-06-14T00:31:00.824Z,12.20
2018-06-14T00:35:55.912Z,12.20
2018-06-14T00:41:19.818Z,12.20
2018-06-14T00:43:47.348Z,12.20
2018-06-14T00:46:14.896Z,12.20
2018-06-14T00:48:42.671Z,12.20
2018-06-14T00:51:10.486Z,12.10
2018-06-14T00:53:38.042Z,12.10
2018-06-14T00:56:05.807Z,12.10
2018-06-14T00:58:33.365Z,12.10
2018-06-14T01:01:01.142Z,12.10
2018-06-14T01:03:28.726Z,12.10
2018-06-14T01:05:56.373Z,12.10
2018-06-14T01:08:24.002Z,12.10
2018-06-14T01:10:51.559Z,12.10
2018-06-14T01:13:19.077Z,12.10
2018-06-14T01:15:47.521Z,12.00
2018-06-14T01:20:43.098Z,11.90
2018-06-14T01:23:10.627Z,11.90
2018-06-14T01:25:38.350Z,11.90
2018-06-14T01:28:06.067Z,11.80
2018-06-14T01:30:33.906Z,11.80
2018-06-14T01:33:01.501Z,11.80
2018-06-14T01:35:29.258Z,11.70
2018-06-14T01:38:08.193Z,11.70
2018-06-14T01:40:35.749Z,11.70
2018-06-14T01:43:03.272Z,11.80
2018-06-14T01:47:58.722Z,11.80
2018-06-14T01:50:26.282Z,11.80
2018-06-14T01:52:53.852Z,11.80
2018-06-14T01:55:21.394Z,11.80
2018-06-14T01:57:49.051Z,11.90
2018-06-14T02:00:16.617Z,11.80
2018-06-14T02:02:44.767Z,11.90
2018-06-14T02:05:12.400Z,11.80
2018-06-14T02:07:40.056Z,11.90
2018-06-14T02:10:07.619Z,11.80
2018-06-14T02:12:35.264Z,11.80
2018-06-14T02:15:03.878Z,11.80
2018-06-14T02:17:31.434Z,11.80
2018-06-14T02:19:59.209Z,11.80
2018-06-14T02:22:26.730Z,11.90
2018-06-14T02:24:54.347Z,11.80
2018-06-14T02:27:22.258Z,11.90
2018-06-14T02:29:49.830Z,11.80
2018-06-14T02:32:17.525Z,11.80
2018-06-14T02:34:45.039Z,11.90
2018-06-14T02:37:13.753Z,11.80
2018-06-14T02:39:41.364Z,11.80
2018-06-14T02:42:09.134Z,11.90
2018-06-14T02:44:37.079Z,11.90
2018-06-14T02:47:04.857Z,11.90
2018-06-14T02:49:32.454Z,11.90
2018-06-14T02:51:59.984Z,11.80
2018-06-14T02:54:27.586Z,11.80
2018-06-14T02:56:55.140Z,11.90
2018-06-14T02:59:23.012Z,11.90
2018-06-14T03:01:50.546Z,11.90
2018-06-14T03:04:18.422Z,11.90
2018-06-14T03:06:47.112Z,11.80
2018-06-14T03:09:14.676Z,11.80
2018-06-14T03:11:42.248Z,11.90
2018-06-14T03:14:09.807Z,11.80
2018-06-14T03:16:37.391Z,11.90
2018-06-14T03:19:04.998Z,11.90
2018-06-14T03:21:32.747Z,11.90
2018-06-14T03:24:00.347Z,11.90
2018-06-14T03:26:28.027Z,11.90
2018-06-14T03:28:55.597Z,11.90
2018-06-14T03:31:23.139Z,11.90
2018-06-14T03:33:50.815Z,11.90
2018-06-14T03:36:18.694Z,11.90
2018-06-14T03:38:46.304Z,11.90
2018-06-14T03:41:17.750Z,11.90
2018-06-14T03:43:45.346Z,11.90
2018-06-14T03:46:12.894Z,12.00
2018-06-14T03:51:07.960Z,12.00
2018-06-14T03:53:35.570Z,12.00
2018-06-14T03:56:03.168Z,12.00
2018-06-14T03:58:30.758Z,12.00
2018-06-14T04:00:58.307Z,12.00
2018-06-14T04:03:25.872Z,12.00
2018-06-14T04:05:57.350Z,12.00
2018-06-14T04:08:24.962Z,12.00
2018-06-14T04:10:52.935Z,12.00
2018-06-14T04:13:20.730Z,12.00
2018-06-14T04:15:48.353Z,12.00
2018-06-14T04:18:16.119Z,12.00
2018-06-14T04:20:43.991Z,12.00
2018-06-14T04:23:11.506Z,12.10
2018-06-14T04:25:39.473Z,12.10
2018-06-14T04:28:07.188Z,12.10
2018-06-14T04:30:34.796Z,12.10
2018-06-14T04:33:02.378Z,12.20
2018-06-14T04:35:29.991Z,12.20
2018-06-14T04:37:57.551Z,12.20
2018-06-14T04:40:29.007Z,12.30
2018-06-14T04:42:56.733Z,12.30
2018-06-14T04:45:24.305Z,12.30
2018-06-14T04:47:51.886Z,12.40
2018-06-14T04:50:19.451Z,12.40
2018-06-14T04:52:47.027Z,12.40
2018-06-14T04:55:14.671Z,12.40
2018-06-14T04:57:42.215Z,12.50
2018-06-14T05:00:09.874Z,12.50
2018-06-14T05:02:37.624Z,12.50
2018-06-14T05:05:05.596Z,12.60
2018-06-14T05:07:33.227Z,12.60
2018-06-14T05:10:00.762Z,12.60
2018-06-14T05:12:28.303Z,12.70
2018-06-14T05:14:55.824Z,12.70
2018-06-14T05:17:23.478Z,12.70
2018-06-14T05:19:51.112Z,12.80
2018-06-14T05:22:18.658Z,12.80
2018-06-14T05:24:46.559Z,12.80
2018-06-14T05:27:14.272Z,13.00
2018-06-14T05:29:41.908Z,13.00
2018-06-14T05:32:09.753Z,13.00
2018-06-14T05:34:37.570Z,13.10
2018-06-14T05:37:05.162Z,13.20
2018-06-14T05:39:32.742Z,13.20
2018-06-14T05:42:00.330Z,13.30
2018-06-14T05:44:27.962Z,13.40
2018-06-14T05:46:55.636Z,13.50
2018-06-14T05:49:23.218Z,13.60
2018-06-14T05:51:50.770Z,13.60
2018-06-14T05:54:18.320Z,13.70
2018-06-14T05:56:46.090Z,13.70
2018-06-14T05:59:13.640Z,13.80
2018-06-14T06:01:41.219Z,13.90
2018-06-14T06:04:08.779Z,13.90
2018-06-14T06:06:36.445Z,14.00
2018-06-14T06:09:07.289Z,14.00
2018-06-14T06:11:34.888Z,14.10
2018-06-14T06:14:02.784Z,14.10
2018-06-14T06:16:30.331Z,14.20
2018-06-14T06:18:57.871Z,14.30
2018-06-14T06:21:25.394Z,14.20
2018-06-14T06:23:52.916Z,14.30
2018-06-14T06:26:20.551Z,14.30
2018-06-14T06:28:48.020Z,14.50
2018-06-14T06:31:15.581Z,14.60
2018-06-14T06:33:43.112Z,14.70
2018-06-14T06:36:10.768Z,14.80
2018-06-14T06:38:38.387Z,14.90
2018-06-14T06:41:05.941Z,14.90
2018-06-14T06:43:37.769Z,15.00
2018-06-14T06:46:05.336Z,15.00
2018-06-14T06:48:32.898Z,15.10
2018-06-14T06:51:00.456Z,15.20
2018-06-14T06:53:32.256Z,15.40
2018-06-14T06:55:59.863Z,15.50
2018-06-14T06:58:27.423Z,15.60
2018-06-14T07:00:55.222Z,15.70
2018-06-14T07:03:22.769Z,15.80
2018-06-14T07:05:50.390Z,15.90
2018-06-14T07:08:17.989Z,16.00
2018-06-14T07:10:45.952Z,16.10
2018-06-14T07:13:13.561Z,16.20
2018-06-14T07:15:41.309Z,16.20
2018-06-14T07:18:08.975Z,16.30
2018-06-14T07:20:36.611Z,16.40
2018-06-14T07:23:04.535Z,16.50
2018-06-14T07:25:32.203Z,16.50
2018-06-14T07:30:27.296Z,16.70
2018-06-14T07:32:54.863Z,16.80
2018-06-14T07:35:22.570Z,16.80
2018-06-14T07:37:50.179Z,16.80
2018-06-14T07:40:17.747Z,16.80
2018-06-14T07:42:45.588Z,16.90
2018-06-14T07:45:13.187Z,17.10
2018-06-14T07:47:40.758Z,17.40
2018-06-14T07:50:08.344Z,17.70
2018-06-14T07:52:36.410Z,17.90
2018-06-14T07:55:04.067Z,17.80
2018-06-14T07:59:59.238Z,18.00
2018-06-14T08:02:26.907Z,18.00
2018-06-14T08:04:54.836Z,18.00
2018-06-14T08:07:22.544Z,18.10
2018-06-14T08:09:50.208Z,18.20
2018-06-14T08:12:17.767Z,18.40
2018-06-14T08:14:45.529Z,18.40
2018-06-14T08:17:13.116Z,18.50
2018-06-14T08:19:40.676Z,18.70
2018-06-14T08:22:08.228Z,18.80
2018-06-14T08:24:35.836Z,18.90
2018-06-14T08:27:03.451Z,18.90
2018-06-14T08:29:31.009Z,19.00
2018-06-14T08:31:58.559Z,19.10
2018-06-14T08:34:26.124Z,19.20
2018-06-14T08:36:53.713Z,19.20
2018-06-14T08:39:21.712Z,19.30
2018-06-14T08:41:49.322Z,19.30
2018-06-14T08:44:16.935Z,19.30
2018-06-14T08:49:12.066Z,19.20
2018-06-14T08:51:39.663Z,19.10
2018-06-14T08:54:07.271Z,19.10
2018-06-14T08:56:35.407Z,18.90
2018-06-14T08:59:03.051Z,18.80
2018-06-14T09:01:31.067Z,18.70
2018-06-14T09:03:58.571Z,18.70
2018-06-14T09:06:26.131Z,18.70
2018-06-14T09:08:53.828Z,18.70
2018-06-14T09:11:21.390Z,18.60
2018-06-14T09:13:48.940Z,18.60
2018-06-14T09:16:16.460Z,18.50
2018-06-14T09:18:44.085Z,18.50
2018-06-14T09:21:11.626Z,18.40
2018-06-14T09:23:39.175Z,18.40
2018-06-14T09:26:07.116Z,18.40
2018-06-14T09:28:34.762Z,18.40
2018-06-14T09:31:02.283Z,18.40
2018-06-14T09:33:29.810Z,18.30
2018-06-14T09:35:57.521Z,18.30
2018-06-14T09:40:52.911Z,18.20
2018-06-14T09:43:20.467Z,18.10
2018-06-14T09:45:48.020Z,18.10
2018-06-14T09:48:15.562Z,18.20
2018-06-14T09:50:43.094Z,18.10
2018-06-14T09:53:10.622Z,18.10
2018-06-14T09:55:38.169Z,18.20
2018-06-14T09:58:05.723Z,18.20
2018-06-14T10:00:33.273Z,18.30
2018-06-14T10:03:00.783Z,18.40
2018-06-14T10:05:28.385Z,18.40
2018-06-14T10:07:56.157Z,18.60
2018-06-14T10:10:23.715Z,18.60
2018-06-14T10:12:51.250Z,18.70
2018-06-14T10:15:18.788Z,18.80
2018-06-14T10:17:50.487Z,19.00
2018-06-14T10:20:18.073Z,19.10
2018-06-14T10:22:45.751Z,19.30
2018-06-14T10:25:13.744Z,19.50
2018-06-14T10:27:41.560Z,19.70
2018-06-14T10:30:09.136Z,19.80
2018-06-14T10:32:36.742Z,19.90
2018-06-14T10:35:04.299Z,20.00
2018-06-14T10:37:31.848Z,20.00
2018-06-14T10:39:59.435Z,20.00
2018-06-14T10:44:54.491Z,20.20
2018-06-14T10:47:22.028Z,20.40
2018-06-14T10:49:49.605Z,20.60
2018-06-14T10:52:17.153Z,20.80
2018-06-14T10:54:44.715Z,20.80
2018-06-14T10:57:12.250Z,20.60
2018-06-14T10:59:39.784Z,20.70
2018-06-14T11:02:07.315Z,20.70
2018-06-14T11:04:34.873Z,20.80
2018-06-14T11:07:02.458Z,21.20
2018-06-14T11:09:30.020Z,21.70
2018-06-14T11:11:57.573Z,22.10
2018-06-14T11:14:25.122Z,22.40
2018-06-14T11:16:52.658Z,22.70
2018-06-14T11:19:20.190Z,22.80
2018-06-14T11:24:15.275Z,22.60
2018-06-14T11:26:42.845Z,22.50
2018-06-14T11:29:10.418Z,22.30
2018-06-14T11:31:37.966Z,22.40
2018-06-14T11:34:05.524Z,22.60
2018-06-14T11:36:33.308Z,22.80
2018-06-14T11:39:00.864Z,22.80
2018-06-14T11:41:28.431Z,22.70
2018-06-14T11:43:55.982Z,22.70
2018-06-14T11:46:23.631Z,22.90
2018-06-14T11:48:51.479Z,22.70
2018-06-14T11:51:19.036Z,22.60
2018-06-14T11:53:46.583Z,22.40
2018-06-14T11:56:14.120Z,22.30
2018-06-14T11:58:41.723Z,22.20
2018-06-14T12:01:09.281Z,21.70
2018-06-14T12:03:36.779Z,21.30
2018-06-14T12:06:04.354Z,21.20
2018-06-14T12:08:31.857Z,21.10
2018-06-14T12:10:59.423Z,21.30
2018-06-14T12:13:26.975Z,21.60
2018-06-14T12:15:54.635Z,21.80
2018-06-14T12:18:22.231Z,21.90
2018-06-14T12:20:50.056Z,21.90
2018-06-14T12:23:17.596Z,21.90
2018-06-14T12:25:45.160Z,21.90
2018-06-14T12:28:12.711Z,22.10
2018-06-14T12:30:40.335Z,22.90
2018-06-14T12:33:07.906Z,23.50
2018-06-14T12:35:35.432Z,23.90
2018-06-14T12:38:03.223Z,24.10
2018-06-14T12:40:30.776Z,23.90
2018-06-14T12:42:58.284Z,23.60
2018-06-14T12:45:25.927Z,23.50
2018-06-14T12:47:53.447Z,23.50
2018-06-14T12:50:20.995Z,23.60
2018-06-14T12:52:48.530Z,23.10
2018-06-14T12:55:16.191Z,22.90
2018-06-14T13:00:11.197Z,22.20
2018-06-14T13:02:38.709Z,21.90
2018-06-14T13:05:06.303Z,22.00
2018-06-14T13:07:34.030Z,21.80
2018-06-14T13:10:01.633Z,21.80
2018-06-14T13:12:29.171Z,21.60
2018-06-14T13:14:56.757Z,21.50
2018-06-14T13:17:24.334Z,21.60
2018-06-14T13:19:53.370Z,21.60
2018-06-14T13:22:20.959Z,21.50
2018-06-14T13:24:48.697Z,21.40
2018-06-14T13:27:16.260Z,21.30
2018-06-14T13:29:43.786Z,21.40
2018-06-14T13:32:11.533Z,21.60
2018-06-14T13:34:39.715Z,21.60
2018-06-14T13:37:07.391Z,21.50
2018-06-14T13:42:03.020Z,21.90
2018-06-14T13:44:30.557Z,22.10
2018-06-14T13:46:58.121Z,22.00
2018-06-14T13:49:25.724Z,22.20
2018-06-14T13:51:53.279Z,22.40
2018-06-14T13:54:20.843Z,22.40
2018-06-14T13:56:48.438Z,22.10
2018-06-14T13:59:16.002Z,21.80
2018-06-14T14:01:43.543Z,21.60
2018-06-14T14:04:11.067Z,21.70
2018-06-14T14:06:38.616Z,21.50
2018-06-14T14:09:08.336Z,21.50
2018-06-14T14:11:36.232Z,21.50
2018-06-14T14:14:03.788Z,21.60
2018-06-14T14:16:31.325Z,21.40
2018-06-14T14:18:58.986Z,21.40
2018-06-14T14:21:26.614Z,21.40
2018-06-14T14:23:54.167Z,21.50
2018-06-14T14:26:21.745Z,21.50
2018-06-14T14:28:50.674Z,21.60
2018-06-14T14:31:18.262Z,21.90
2018-06-14T14:33:45.816Z,22.20
2018-06-14T14:36:13.362Z,22.10
2018-06-14T14:38:41.830Z,22.10
2018-06-14T14:41:09.455Z,22.20
2018-06-14T14:43:36.995Z,22.70
2018-06-14T14:46:04.598Z,22.90
2018-06-14T14:48:32.136Z,23.30
2018-06-14T14:50:59.712Z,23.50
2018-06-14T14:53:27.250Z,23.80
2018-06-14T14:55:54.807Z,24.10
2018-06-14T14:58:22.619Z,24.30
2018-06-14T15:00:50.717Z,24.60
2018-06-14T15:03:18.249Z,24.40
2018-06-14T15:05:46.243Z,24.30
2018-06-14T15:08:13.771Z,24.40
2018-06-14T15:10:41.773Z,24.20
2018-06-14T15:13:09.299Z,24.20
2018-06-14T15:15:36.978Z,23.90
2018-06-14T15:18:04.831Z,23.70
2018-06-14T15:20:32.372Z,23.60
2018-06-14T15:22:59.905Z,23.60
2018-06-14T15:25:27.520Z,23.60
2018-06-14T15:27:55.051Z,23.60
2018-06-14T15:30:22.831Z,23.50
2018-06-14T15:32:50.387Z,23.20
2018-06-14T15:35:18.305Z,23.00
2018-06-14T15:37:45.999Z,22.90
2018-06-14T15:40:13.567Z,22.60
2018-06-14T15:42:41.101Z,22.50
2018-06-14T15:45:08.667Z,22.30
2018-06-14T15:47:40.323Z,22.10
2018-06-14T15:50:07.913Z,21.90
2018-06-14T15:52:35.566Z,22.00
2018-06-14T15:55:14.807Z,22.20
2018-06-14T15:57:42.459Z,22.60
2018-06-14T16:00:09.988Z,22.90
2018-06-14T16:02:37.548Z,23.00
2018-06-14T16:05:05.310Z,23.00
2018-06-14T16:07:32.853Z,23.00
2018-06-14T16:10:04.278Z,22.80
2018-06-14T16:12:32.023Z,22.60
2018-06-14T16:14:59.586Z,22.40
2018-06-14T16:17:27.198Z,22.10
2018-06-14T16:19:54.745Z,21.80
2018-06-14T16:22:22.399Z,21.70
2018-06-14T16:24:49.934Z,21.60
2018-06-14T16:27:17.512Z,21.60
2018-06-14T16:29:45.099Z,21.60
2018-06-14T16:32:12.894Z,21.60
2018-06-14T16:34:40.664Z,21.60
2018-06-14T16:37:08.254Z,21.50
2018-06-14T16:39:35.961Z,21.50
2018-06-14T16:42:03.534Z,21.30
2018-06-14T16:44:31.083Z,21.10
2018-06-14T16:46:58.706Z,21.10
2018-06-14T16:49:26.274Z,21.10
2018-06-14T16:51:53.822Z,21.00
2018-06-14T16:54:21.391Z,21.00
2018-06-14T16:56:48.963Z,21.00
2018-06-14T16:59:16.985Z,20.90
2018-06-14T17:01:47.080Z,20.80
2018-06-14T17:04:18.563Z,20.70
2018-06-14T17:06:48.125Z,20.70
2018-06-14T17:09:15.848Z,20.80
2018-06-14T17:11:52.163Z,20.90
2018-06-14T17:14:19.716Z,21.00
2018-06-14T17:16:48.018Z,21.10
2018-06-14T17:19:15.963Z,21.10
2018-06-14T17:21:43.534Z,21.10
2018-06-14T17:24:11.102Z,21.10
2018-06-14T17:26:38.651Z,21.10
2018-06-14T17:29:06.235Z,21.00
2018-06-14T17:31:33.775Z,20.90
2018-06-14T17:36:30.377Z,20.80
2018-06-14T17:38:57.998Z,20.70
2018-06-14T17:41:25.636Z,20.70
2018-06-14T17:43:53.123Z,20.60
2018-06-14T17:46:21.296Z,20.60
2018-06-14T17:48:48.841Z,20.40
2018-06-14T17:51:16.421Z,20.40
2018-06-14T17:53:43.997Z,20.30
2018-06-14T17:56:11.507Z,20.20
2018-06-14T17:58:39.156Z,20.10
2018-06-14T18:01:06.857Z,20.10
2018-06-14T18:03:34.855Z,20.00
2018-06-14T18:06:02.874Z,19.90
2018-06-14T18:08:30.047Z,19.80
2018-06-14T18:10:57.700Z,19.60
2018-06-14T18:13:25.322Z,19.50
2018-06-14T18:15:53.075Z,19.50
2018-06-14T18:18:20.878Z,19.40
2018-06-14T18:20:48.459Z,19.30
2018-06-14T18:23:16.071Z,19.20
2018-06-14T18:25:43.639Z,19.10
2018-06-14T18:28:11.289Z,18.90
2018-06-14T18:30:38.850Z,18.80
2018-06-14T18:33:06.460Z,18.70
2018-06-14T18:35:34.327Z,18.60
2018-06-14T18:38:01.887Z,18.50
2018-06-14T18:40:31.654Z,18.40
2018-06-14T18:42:59.196Z,18.20
2018-06-14T18:45:26.838Z,18.00
2018-06-14T18:47:54.395Z,17.90
2018-06-14T18:52:49.572Z,17.60
2018-06-14T18:55:17.394Z,17.40
2018-06-14T18:57:45.052Z,17.30
2018-06-14T19:00:12.664Z,17.10
2018-06-14T19:02:40.321Z,17.00
2018-06-14T19:05:07.950Z,16.80
2018-06-14T19:07:35.503Z,16.60
2018-06-14T19:10:03.282Z,16.50
2018-06-14T19:12:30.933Z,16.30
2018-06-14T19:14:58.663Z,16.20
2018-06-14T19:17:26.608Z,16.00
2018-06-14T19:19:54.280Z,15.80
2018-06-14T19:22:21.860Z,15.70
2018-06-14T19:24:49.827Z,15.50
2018-06-14T19:27:17.427Z,15.40
2018-06-14T19:29:45.145Z,15.30
2018-06-14T19:32:12.980Z,15.20
2018-06-14T19:34:40.564Z,15.00
2018-06-14T19:37:08.262Z,14.90
2018-06-14T19:39:36.157Z,14.80
2018-06-14T19:42:03.799Z,14.70
2018-06-14T19:44:31.356Z,14.70
2018-06-14T19:46:58.960Z,14.50
2018-06-14T19:49:26.605Z,14.40
2018-06-14T19:51:55.604Z,14.40
2018-06-14T19:54:23.781Z,14.20
2018-06-14T19:56:51.410Z,14.10
2018-06-14T19:59:18.963Z,14.00
2018-06-14T20:04:13.975Z,13.80
2018-06-14T20:06:41.571Z,13.70
2018-06-14T20:09:09.492Z,13.60
2018-06-14T20:11:37.317Z,13.50
2018-06-14T20:14:05.321Z,13.50
2018-06-14T20:16:32.847Z,13.40
2018-06-14T20:19:00.783Z,13.40
2018-06-14T20:21:28.359Z,13.40
2018-06-14T20:23:55.907Z,13.30
2018-06-14T20:26:23.790Z,13.20
2018-06-14T20:28:51.482Z,13.30
2018-06-14T20:31:19.043Z,13.30
2018-06-14T20:33:46.616Z,13.20
2018-06-14T20:36:18.612Z,13.20
2018-06-14T20:38:46.308Z,13.10
2018-06-14T20:41:13.900Z,13.00
2018-06-14T20:43:41.429Z,13.00
2018-06-14T20:46:09.055Z,13.00
2018-06-14T20:48:36.623Z,12.90
2018-06-14T20:51:04.275Z,12.90
2018-06-14T20:53:31.911Z,12.80
2018-06-14T20:55:59.479Z,12.80
2018-06-14T20:58:27.050Z,12.80
2018-06-14T21:00:55.315Z,12.70
2018-06-14T21:03:22.931Z,12.70
2018-06-14T21:05:50.458Z,12.60
2018-06-14T21:08:18.134Z,12.60
2018-06-14T21:10:45.722Z,12.60
2018-06-14T21:13:13.274Z,12.50
2018-06-14T21:15:40.866Z,12.50
2018-06-14T21:18:08.698Z,12.40
2018-06-14T21:20:36.268Z,12.40
2018-06-14T21:23:03.878Z,12.30
2018-06-14T21:25:31.462Z,12.30
2018-06-14T21:27:58.996Z,12.20
2018-06-14T21:30:26.583Z,12.10
2018-06-14T21:32:54.440Z,12.10
2018-06-14T21:35:22.047Z,12.00
2018-06-14T21:37:49.609Z,12.00
2018-06-14T21:40:17.204Z,11.90
2018-06-14T21:42:44.710Z,11.80
2018-06-14T21:45:12.334Z,11.80
2018-06-14T21:47:39.867Z,11.70
2018-06-14T21:50:07.565Z,11.80
2018-06-14T21:52:35.118Z,11.70
2018-06-14T21:55:02.722Z,11.60
2018-06-14T21:57:30.316Z,11.60
2018-06-14T21:59:57.874Z,11.50
2018-06-14T22:02:25.488Z,11.40
2018-06-14T22:04:53.048Z,11.30
2018-06-14T22:07:20.624Z,11.20
2018-06-14T22:09:48.398Z,11.10
2018-06-14T22:12:15.980Z,11.00
2018-06-14T22:14:43.580Z,11.00
2018-06-14T22:17:11.292Z,10.90
2018-06-14T22:19:42.738Z,10.90
2018-06-14T22:22:10.332Z,10.90
2018-06-14T22:24:37.965Z,10.80
2018-06-14T22:27:05.762Z,10.90
2018-06-14T22:29:33.255Z,10.80
2018-06-14T22:32:00.851Z,10.80
2018-06-14T22:37:01.471Z,10.80
2018-06-14T22:39:29.089Z,10.80
2018-06-14T22:41:56.683Z,10.80
2018-06-14T22:44:24.476Z,10.80
2018-06-14T22:46:52.006Z,10.80
2018-06-14T22:49:19.559Z,10.70
2018-06-14T22:52:48.619Z,10.70
2018-06-14T22:55:16.392Z,10.60
2018-06-14T22:57:44.073Z,10.60
2018-06-14T23:00:16.006Z,10.50
2018-06-14T23:02:43.600Z,10.40
2018-06-14T23:05:11.154Z,10.40
2018-06-14T23:07:38.665Z,10.30
2018-06-14T23:10:19.195Z,10.20
2018-06-14T23:12:46.947Z,10.20
2018-06-14T23:15:15.487Z,10.10
2018-06-14T23:17:44.005Z,10.10
2018-06-14T23:20:11.635Z,10.10
2018-06-14T23:22:39.241Z,10.00
2018-06-14T23:25:06.893Z,9.90
2018-06-14T23:27:34.463Z,9.90
2018-06-14T23:30:02.057Z,9.80
2018-06-14T23:32:29.860Z,9.80
2018-06-14T23:34:57.753Z,9.80
2018-06-14T23:37:26.023Z,9.80
2018-06-14T23:39:54.063Z,9.80
2018-06-14T23:42:22.155Z,9.70
2018-06-14T23:44:49.679Z,9.70
2018-06-14T23:47:17.244Z,9.60
2018-06-14T23:49:44.926Z,9.60
2018-06-14T23:52:12.764Z,9.50
2018-06-14T23:54:40.450Z,9.50
2018-06-14T23:57:08.014Z,9.40
2018-06-14T23:59:35.620Z,9.40
